Time;durP1;ratioP1;P1;durP2;ratioP2;P2;SDS_P1;SDS_P2;PMS_P1;PMS_P2;Temp;Humidity;BMP_temperature;BMP_pressure;BME280_temperature;BME280_humidity;BME280_pressure;Samples;Min_cycle;Max_cycle;Signal;HPM_P1;HPM_P2
2022/01/05 00:02:12;;;;;;;12.82;2.72;;;;;;;2.47;87.37;100131.03;5191430;23;20393;-80
2022/01/05 00:04:38;;;;;;;12.73;2.58;;;;;;;2.25;87.85;100095.38;4937042;29;20030;-80
2022/01/05 00:07:03;;;;;;;10.77;2.20;;;;;;;2.33;87.61;100123.09;4937184;29;20503;-81
2022/01/05 00:09:29;;;;;;;10.90;1.70;;;;;;;2.05;87.30;100097.88;4936675;29;20023;-89
2022/01/05 00:11:54;;;;;;;14.82;2.80;;;;;;;1.95;86.85;100079.59;4936781;29;20028;-88
2022/01/05 00:14:20;;;;;;;12.07;2.53;;;;;;;2.23;86.69;100131.09;4936943;29;20082;-88
2022/01/05 00:16:45;;;;;;;14.88;3.13;;;;;;;2.14;87.19;100134.00;4936958;29;20031;-86
2022/01/05 00:19:10;;;;;;;12.65;2.95;;;;;;;2.13;87.53;100129.81;4936727;29;20023;-85
2022/01/05 00:21:40;;;;;;;15.80;2.70;;;;;;;2.08;87.38;100128.34;4936791;29;20111;-85
2022/01/05 00:24:06;;;;;;;14.63;2.28;;;;;;;2.04;87.73;100134.44;4936725;29;20404;-88
2022/01/05 00:26:31;;;;;;;13.35;2.22;;;;;;;2.03;86.89;100131.06;4936632;29;20038;-86
2022/01/05 00:28:56;;;;;;;15.02;3.90;;;;;;;1.97;86.87;100126.22;4936336;29;20027;-84
2022/01/05 00:31:22;;;;;;;18.13;2.70;;;;;;;1.97;86.51;100134.69;4919298;29;20115;-88
2022/01/05 00:33:47;;;;;;;12.60;2.40;;;;;;;1.96;86.42;100134.72;4936419;29;20024;-85
2022/01/05 00:36:12;;;;;;;15.65;2.70;;;;;;;1.57;86.59;100084.44;4936459;29;20547;-84
2022/01/05 00:38:38;;;;;;;16.17;2.42;;;;;;;1.50;86.78;100080.50;4936414;29;20071;-86
2022/01/05 00:41:04;;;;;;;13.48;2.50;;;;;;;1.72;86.65;100127.16;4936408;29;20032;-87
2022/01/05 00:43:30;;;;;;;12.07;2.47;;;;;;;1.87;86.86;100145.25;4936527;29;20035;-87
2022/01/05 00:45:55;;;;;;;9.27;2.30;;;;;;;1.82;86.05;100148.00;4936394;29;20484;-88
2022/01/05 00:48:21;;;;;;;14.27;3.03;;;;;;;1.75;86.18;100136.38;4936487;29;20111;-87
2022/01/05 00:50:46;;;;;;;11.00;2.97;;;;;;;1.57;85.71;100106.53;4936291;29;20118;-88
2022/01/05 00:53:11;;;;;;;11.68;2.80;;;;;;;1.56;86.38;100115.03;4936360;29;20424;-85
2022/01/05 00:55:37;;;;;;;14.90;2.88;;;;;;;1.82;85.66;100159.88;4936309;29;20484;-87
2022/01/05 00:58:02;;;;;;;13.27;3.70;;;;;;;1.76;86.03;100155.03;4918944;29;20028;-88
2022/01/05 01:00:33;;;;;;;12.07;2.63;;;;;;;1.79;85.59;100158.28;4918941;29;20079;-82
2022/01/05 01:02:58;;;;;;;11.32;2.90;;;;;;;1.79;85.28;100160.00;4936215;29;20043;-84
2022/01/05 01:05:23;;;;;;;10.70;3.45;;;;;;;1.73;85.88;100164.44;4936063;29;20070;-86
2022/01/05 01:07:49;;;;;;;16.42;2.85;;;;;;;1.24;86.65;100094.16;4936339;29;20581;-87
2022/01/05 01:10:14;;;;;;;11.88;2.80;;;;;;;1.64;86.69;100169.03;4935833;29;20547;-87
2022/01/05 01:12:40;;;;;;;17.10;3.22;;;;;;;1.46;86.10;100149.34;4936312;29;20032;-87
2022/01/05 01:15:08;;;;;;;11.82;2.70;;;;;;;1.56;86.62;100176.13;4935303;29;20028;-85
2022/01/05 01:17:34;;;;;;;9.38;2.58;;;;;;;1.42;86.72;100157.09;4936002;29;20032;-86
2022/01/05 01:20:00;;;;;;;12.15;3.25;;;;;;;1.40;86.24;100158.88;4936010;29;20383;-83
2022/01/05 01:22:28;;;;;;;11.98;2.97;;;;;;;1.47;86.55;100177.28;4935821;29;20119;-85
2022/01/05 01:24:53;;;;;;;9.98;3.05;;;;;;;1.34;86.83;100163.34;4935870;29;20491;-87
2022/01/05 01:27:19;;;;;;;13.77;2.90;;;;;;;1.28;86.56;100161.88;4935612;29;20028;-84
2022/01/05 01:29:44;;;;;;;13.25;2.70;;;;;;;1.42;86.35;100185.09;4935701;29;20066;-87
2022/01/05 01:32:09;;;;;;;15.73;3.58;;;;;;;1.42;86.59;100179.16;4936161;29;20534;-87
2022/01/05 01:34:35;;;;;;;14.90;3.00;;;;;;;1.39;86.98;100180.13;4935681;29;20047;-85
2022/01/05 01:37:00;;;;;;;15.25;3.08;;;;;;;1.36;86.76;100177.66;4935783;29;20031;-87
2022/01/05 01:39:25;;;;;;;13.32;3.15;;;;;;;1.35;86.23;100177.72;4918578;29;20080;-86
2022/01/05 01:41:51;;;;;;;8.02;3.05;;;;;;;1.34;86.36;100178.59;4935461;29;20028;-86
2022/01/05 01:44:16;;;;;;;14.35;2.90;;;;;;;1.31;86.38;100178.72;4935309;29;20032;-88
2022/01/05 01:46:42;;;;;;;17.42;3.60;;;;;;;1.27;86.58;100177.97;4935651;29;20038;-87
2022/01/05 01:49:08;;;;;;;13.32;2.90;;;;;;;1.25;86.98;100179.75;4935470;29;20490;-86
2022/01/05 01:51:33;;;;;;;21.15;3.60;;;;;;;1.20;87.14;100180.81;4918382;29;20043;-87
2022/01/05 01:54:00;;;;;;;13.25;3.00;;;;;;;0.93;86.76;100152.91;4935493;29;20035;-84
2022/01/05 01:56:26;;;;;;;12.43;3.03;;;;;;;0.91;86.94;100144.50;4935530;29;20031;-86
2022/01/05 01:58:52;;;;;;;14.52;3.45;;;;;;;1.14;87.01;100186.94;4935323;29;20040;-87
2022/01/05 02:01:17;;;;;;;10.95;3.13;;;;;;;0.87;87.58;100150.56;4935503;29;20024;-82
2022/01/05 02:03:43;;;;;;;13.82;3.10;;;;;;;0.78;87.13;100139.00;4935362;29;20052;-83
2022/01/05 02:06:09;;;;;;;15.93;3.08;;;;;;;0.99;87.62;100178.13;4935563;29;20030;-86
2022/01/05 02:08:34;;;;;;;14.02;2.88;;;;;;;0.89;87.19;100164.06;4935448;29;20091;-81
2022/01/05 02:11:00;;;;;;;14.98;3.45;;;;;;;1.00;87.48;100181.50;4935311;29;20365;-82
2022/01/05 02:13:25;;;;;;;15.05;3.72;;;;;;;0.98;87.69;100175.59;4935312;29;20035;-86
2022/01/05 02:15:51;;;;;;;12.30;3.25;;;;;;;0.94;87.79;100181.69;4935394;29;20113;-82
2022/01/05 02:21:02;;;;;;;12.98;3.58;;;;;;;0.86;87.78;100176.84;4935347;29;20040;-86
2022/01/05 02:23:28;;;;;;;11.43;2.80;;;;;;;0.83;88.12;100180.34;4935113;29;20066;-87
2022/01/05 02:25:54;;;;;;;10.15;3.30;;;;;;;0.67;87.88;100158.03;4936304;29;20480;-86
2022/01/05 02:28:20;;;;;;;13.48;2.67;;;;;;;0.79;87.91;100183.88;4939212;29;20035;-86
2022/01/05 02:41:08;;;;;;;14.40;2.97;;;;;;;0.64;88.05;100196.25;5900058;23;20063;-87
2022/01/05 02:43:35;;;;;;;14.32;2.97;;;;;;;0.32;88.35;100152.38;4940632;29;20110;-86
2022/01/05 02:46:01;;;;;;;14.73;3.60;;;;;;;0.21;88.26;100137.50;4957650;29;20058;-88
2022/01/05 02:48:26;;;;;;;15.88;3.13;;;;;;;0.47;88.04;100192.53;4957286;29;20039;-84
2022/01/05 02:50:56;;;;;;;9.48;3.25;;;;;;;0.34;88.21;100178.56;4957723;29;20122;-84
2022/01/05 02:53:21;;;;;;;13.70;3.50;;;;;;;0.34;87.99;100180.25;4957468;29;20113;-79
2022/01/05 02:55:46;;;;;;;14.05;3.72;;;;;;;0.39;87.92;100196.19;4957823;29;20038;-81
2022/01/05 02:58:12;;;;;;;15.13;3.00;;;;;;;0.45;88.08;100201.91;4957627;29;20109;-86
2022/01/05 03:00:37;;;;;;;13.30;2.75;;;;;;;0.28;87.85;100186.34;4957425;29;20043;-85
2022/01/05 03:03:02;;;;;;;13.77;3.28;;;;;;;0.36;88.08;100194.56;4957437;29;20032;-87
2022/01/05 03:05:28;;;;;;;13.00;3.17;;;;;;;0.49;88.06;100220.41;4957669;29;20118;-77
2022/01/05 03:07:53;;;;;;;13.75;2.65;;;;;;;0.44;88.29;100214.66;4957197;29;20114;-81
2022/01/05 03:10:19;;;;;;;16.05;3.60;;;;;;;0.33;88.21;100204.00;4957399;29;20067;-77
2022/01/05 03:12:45;;;;;;;12.15;2.83;;;;;;;0.36;88.10;100214.06;4957473;29;20028;-87
2022/01/05 03:15:11;;;;;;;18.50;3.40;;;;;;;0.47;88.16;100234.88;4957505;29;20034;-86
2022/01/05 03:17:37;;;;;;;15.70;3.22;;;;;;;0.37;87.58;100221.63;4957111;28;20030;-87
2022/01/05 03:20:03;;;;;;;13.25;3.00;;;;;;;0.39;87.93;100217.31;4957211;29;20372;-77
2022/01/05 03:22:28;;;;;;;13.35;3.28;;;;;;;0.51;87.13;100233.91;4957187;29;20131;-81
2022/01/05 03:24:54;;;;;;;15.70;2.50;;;;;;;0.39;87.64;100224.94;4957178;29;20115;-77
2022/01/05 03:27:19;;;;;;;13.73;2.95;;;;;;;0.46;87.01;100246.75;4957078;29;20383;-81
2022/01/05 03:29:45;;;;;;;17.35;3.03;;;;;;;0.17;87.46;100190.94;4957112;29;20070;-83
2022/01/05 03:32:10;;;;;;;14.60;2.83;;;;;;;0.55;86.92;100250.72;4957177;29;20416;-84
2022/01/05 03:34:37;;;;;;;12.15;2.67;;;;;;;0.61;86.39;100252.25;4956908;29;20038;-82
2022/01/05 03:37:03;;;;;;;11.85;3.78;;;;;;;0.65;86.16;100254.63;4956394;28;20039;-77
2022/01/05 03:39:28;;;;;;;10.82;3.03;;;;;;;0.52;86.23;100227.97;4956755;29;20031;-77
2022/01/05 03:41:54;;;;;;;13.82;2.85;;;;;;;0.70;85.97;100255.31;4956641;29;20113;-79
2022/01/05 03:44:19;;;;;;;13.48;3.47;;;;;;;0.83;86.21;100256.59;4956942;29;20121;-78
2022/01/05 03:46:44;;;;;;;13.02;3.03;;;;;;;0.52;85.22;100192.41;4956542;29;20019;-80
2022/01/05 03:49:10;;;;;;;12.30;2.88;;;;;;;0.77;84.74;100238.16;4954649;29;20043;-83
2022/01/05 03:51:35;;;;;;;15.85;3.58;;;;;;;0.87;85.00;100247.16;4956624;29;20027;-82
2022/01/05 03:54:00;;;;;;;20.65;3.10;;;;;;;0.90;84.44;100241.16;4956403;29;20078;-80
2022/01/05 03:56:26;;;;;;;22.17;3.20;;;;;;;0.94;85.07;100257.94;4956563;29;20042;-82
2022/01/05 03:58:51;;;;;;;9.63;2.17;;;;;;;0.89;84.67;100255.56;4956460;29;20023;-80
2022/01/05 04:01:16;;;;;;;14.02;2.97;;;;;;;0.84;85.25;100255.72;4956275;28;20030;-78
2022/01/05 04:03:42;;;;;;;12.75;3.15;;;;;;;0.50;84.99;100219.56;4956542;29;20027;-80
2022/01/05 04:06:07;;;;;;;15.73;3.28;;;;;;;0.64;85.62;100242.81;4956404;29;20031;-77
2022/01/05 04:08:33;;;;;;;12.52;2.40;;;;;;;0.56;85.69;100242.22;4956339;29;20077;-78
2022/01/05 04:10:58;;;;;;;14.13;3.00;;;;;;;0.44;85.65;100233.25;4956248;29;20126;-80
2022/01/05 04:13:23;;;;;;;13.90;2.65;;;;;;;0.30;86.51;100227.78;4956453;28;20019;-81
2022/01/05 04:15:49;;;;;;;11.05;2.30;;;;;;;-0.47;85.99;100115.03;4956319;29;20051;-86
2022/01/05 04:18:14;;;;;;;16.08;3.10;;;;;;;0.47;86.75;100272.97;4956056;29;20023;-81
2022/01/05 04:20:40;;;;;;;10.98;2.83;;;;;;;0.42;86.96;100268.06;4956314;29;20102;-79
2022/01/05 04:23:05;;;;;;;21.67;3.28;;;;;;;0.41;87.28;100274.00;4938322;29;20483;-80
2022/01/05 04:25:32;;;;;;;11.95;2.78;;;;;;;0.27;87.06;100264.25;4955882;29;20062;-77
2022/01/05 04:27:58;;;;;;;15.05;3.33;;;;;;;0.23;87.67;100251.69;4956038;29;20028;-78
2022/01/05 04:30:24;;;;;;;17.40;2.92;;;;;;;0.37;87.43;100284.28;4955898;29;20036;-83
2022/01/05 04:32:49;;;;;;;19.10;3.20;;;;;;;0.04;88.03;100236.19;4955754;28;20065;-80
2022/01/05 04:35:14;;;;;;;15.07;2.60;;;;;;;0.34;87.79;100289.47;4955846;29;20031;-80
2022/01/05 04:37:41;;;;;;;13.93;2.90;;;;;;;-0.02;88.20;100233.81;4955940;29;20106;-82
2022/01/05 04:40:12;;;;;;;17.35;2.90;;;;;;;0.35;88.07;100299.56;4955779;29;20027;-82
2022/01/05 04:42:39;;;;;;;13.15;3.03;;;;;;;0.28;88.07;100288.75;4955416;28;20125;-82
2022/01/05 04:45:05;;;;;;;13.20;2.60;;;;;;;0.37;88.59;100289.38;4955603;29;20043;-79
2022/01/05 04:47:30;;;;;;;14.32;3.38;;;;;;;0.42;87.57;100279.91;4955527;28;20058;-81
2022/01/05 04:49:55;;;;;;;16.30;3.33;;;;;;;0.49;87.68;100277.16;4954783;29;20058;-80
2022/01/05 04:55:11;;;;;;;15.02;3.03;;;;;;;0.39;86.97;100209.69;4906200;27;20056;-75
2022/01/05 04:57:38;;;;;;;15.38;2.80;;;;;;;0.29;86.76;100185.47;4917474;29;20024;-76
2022/01/05 05:00:04;;;;;;;18.55;3.30;;;;;;;1.08;86.40;100302.41;4917574;29;20028;-76
2022/01/05 05:02:32;;;;;;;17.35;3.30;;;;;;;1.06;86.33;100295.69;4917191;29;20028;-82
2022/01/05 05:04:57;;;;;;;14.05;3.95;;;;;;;1.06;86.07;100285.50;4917483;29;20032;-77
2022/01/05 05:07:23;;;;;;;18.80;3.65;;;;;;;1.19;86.25;100308.84;4917324;29;20488;-76
2022/01/05 05:09:48;;;;;;;19.90;3.45;;;;;;;1.18;86.41;100290.22;4915598;29;20044;-79
2022/01/05 05:12:13;;;;;;;17.05;3.72;;;;;;;1.27;85.56;100299.22;4917541;29;20075;-76
2022/01/05 05:14:39;;;;;;;17.27;3.70;;;;;;;1.30;85.54;100310.16;4917350;29;20104;-83
2022/01/05 05:17:05;;;;;;;15.32;2.90;;;;;;;1.34;85.60;100306.63;4917350;29;20098;-78
2022/01/05 05:19:31;;;;;;;18.98;3.47;;;;;;;1.39;85.25;100303.94;4916901;29;20420;-78
2022/01/05 05:21:57;;;;;;;19.35;3.08;;;;;;;1.06;85.73;100243.13;4916947;29;20068;-77
2022/01/05 05:24:22;;;;;;;9.50;2.50;;;;;;;1.43;85.35;100297.84;4917182;29;20032;-86
2022/01/05 05:26:48;;;;;;;15.25;3.45;;;;;;;1.39;85.54;100281.03;4916862;29;20028;-83
2022/01/05 05:29:13;;;;;;;17.45;4.05;;;;;;;1.32;85.67;100262.59;4917080;29;20040;-77
2022/01/05 05:31:38;;;;;;;14.48;2.78;;;;;;;1.49;85.52;100305.28;4917001;29;20059;-82
2022/01/05 05:34:04;;;;;;;19.00;3.65;;;;;;;1.50;86.15;100298.47;4916506;29;20024;-78
2022/01/05 05:36:29;;;;;;;16.52;3.03;;;;;;;1.32;85.87;100279.56;4916845;29;20048;-77
2022/01/05 05:38:54;;;;;;;16.25;3.20;;;;;;;1.34;85.92;100275.25;4916800;29;20020;-80
2022/01/05 05:41:20;;;;;;;16.50;3.60;;;;;;;1.52;85.97;100305.16;4916469;29;20119;-78
2022/01/05 05:43:48;;;;;;;15.25;3.03;;;;;;;1.24;86.00;100251.03;4917053;29;20028;-76
2022/01/05 05:46:13;;;;;;;20.48;2.88;;;;;;;1.58;86.47;100306.69;4917127;29;20109;-76
2022/01/05 05:48:38;;;;;;;16.98;3.00;;;;;;;1.51;86.78;100285.69;4916426;29;20545;-77
2022/01/05 05:51:04;;;;;;;20.05;3.38;;;;;;;1.35;86.01;100265.03;4916591;29;20499;-77
2022/01/05 05:53:29;;;;;;;16.25;3.13;;;;;;;1.65;86.53;100311.50;4916599;29;20056;-76
2022/01/05 05:55:54;;;;;;;20.70;3.75;;;;;;;1.56;86.41;100290.63;4916429;29;20024;-76
2022/01/05 05:58:20;;;;;;;16.42;3.20;;;;;;;1.72;86.24;100310.41;4916612;29;20425;-76
2022/01/05 06:00:45;;;;;;;20.48;3.63;;;;;;;1.65;86.15;100298.75;4916432;29;20035;-78
2022/01/05 06:03:10;;;;;;;16.08;3.00;;;;;;;1.75;86.26;100322.19;4916711;29;20062;-77
2022/01/05 06:05:36;;;;;;;22.42;3.17;;;;;;;1.58;86.39;100282.06;4916433;29;20032;-78
2022/01/05 06:08:01;;;;;;;17.08;3.45;;;;;;;1.34;86.44;100247.28;4916397;29;20036;-77
2022/01/05 06:10:27;;;;;;;17.17;3.85;;;;;;;1.44;86.73;100262.19;4916470;29;20445;-76
2022/01/05 06:12:52;;;;;;;22.85;3.10;;;;;;;1.45;86.70;100280.81;4916204;29;20034;-77
2022/01/05 06:15:18;;;;;;;13.15;2.97;;;;;;;1.15;87.34;100241.97;4916634;29;20031;-77
2022/01/05 06:17:43;;;;;;;18.67;3.38;;;;;;;1.51;87.81;100310.31;4916703;29;20032;-75
2022/01/05 06:20:10;;;;;;;16.15;3.20;;;;;;;1.59;88.22;100313.44;4916174;29;20429;-84
2022/01/05 06:22:38;;;;;;;13.77;3.17;;;;;;;1.41;87.97;100275.00;4916272;29;20032;-76
2022/01/05 06:25:04;;;;;;;19.30;3.75;;;;;;;1.71;88.38;100324.03;4916849;29;20024;-77
2022/01/05 06:27:30;;;;;;;22.10;3.58;;;;;;;1.68;87.33;100308.03;4916229;29;20536;-77
2022/01/05 06:29:55;;;;;;;18.17;3.75;;;;;;;1.82;87.22;100322.81;4916499;29;20036;-76
2022/01/05 06:32:20;;;;;;;18.52;3.35;;;;;;;1.91;88.11;100325.88;4916449;29;20020;-87
2022/01/05 06:34:46;;;;;;;26.85;4.35;;;;;;;1.74;87.34;100292.53;4916161;29;20028;-77
2022/01/05 06:37:15;;;;;;;16.92;4.93;;;;;;;2.00;86.92;100330.63;4916298;29;20028;-80
2022/01/05 06:39:40;;;;;;;17.08;3.88;;;;;;;2.02;86.73;100333.13;4916311;29;20076;-77
2022/01/05 06:42:06;;;;;;;17.88;3.55;;;;;;;2.04;88.32;100333.88;4916263;29;20571;-82
2022/01/05 06:44:31;;;;;;;22.98;4.50;;;;;;;2.06;87.30;100331.28;4916021;29;20107;-77
2022/01/05 06:46:57;;;;;;;14.77;3.72;;;;;;;2.07;87.25;100344.00;4916160;29;20031;-77
2022/01/05 06:49:23;;;;;;;16.05;3.38;;;;;;;2.10;86.95;100348.13;4914717;29;20426;-76
2022/01/05 06:51:51;;;;;;;14.35;3.22;;;;;;;2.05;86.78;100337.28;4916085;29;20574;-76
2022/01/05 06:54:17;;;;;;;20.23;4.57;;;;;;;2.05;86.79;100332.19;4915852;29;20400;-77
2022/01/05 06:56:42;;;;;;;19.98;4.47;;;;;;;2.22;87.26;100360.44;4916024;29;20040;-76
2022/01/05 06:59:07;;;;;;;18.45;3.63;;;;;;;2.25;86.70;100373.03;4915940;29;20480;-75
2022/01/05 07:01:42;;;;;;;18.05;4.25;;;;;;;2.26;87.30;100369.59;4916076;29;20111;-86
2022/01/05 07:04:08;;;;;;;17.75;4.30;;;;;;;2.28;86.68;100370.41;4915992;29;20025;-76
2022/01/05 07:06:33;;;;;;;17.40;3.60;;;;;;;2.32;86.86;100371.94;4915870;29;20042;-77
2022/01/05 07:08:59;;;;;;;16.88;3.65;;;;;;;2.36;87.20;100370.97;4915625;29;20076;-77
2022/01/05 07:11:24;;;;;;;18.45;3.20;;;;;;;2.11;86.23;100327.69;4914464;29;20040;-78
2022/01/05 07:13:49;;;;;;;19.75;3.70;;;;;;;2.20;86.47;100336.72;4919275;29;20028;-76
2022/01/05 07:16:15;;;;;;;17.58;4.03;;;;;;;2.41;86.30;100376.72;4919380;29;20035;-77
2022/01/05 07:18:41;;;;;;;16.00;3.53;;;;;;;2.50;86.07;100373.81;4919252;29;20115;-77
2022/01/05 07:21:07;;;;;;;11.10;3.13;;;;;;;2.53;85.70;100383.91;4918799;29;20111;-77
2022/01/05 07:23:32;;;;;;;24.55;3.90;;;;;;;2.57;85.53;100389.72;4918908;29;20145;-77
2022/01/05 07:25:57;;;;;;;20.95;4.53;;;;;;;2.57;85.44;100382.91;4919149;29;20496;-76
2022/01/05 07:28:23;;;;;;;16.08;4.53;;;;;;;2.50;85.22;100366.19;4918146;29;20428;-72
2022/01/05 07:30:48;;;;;;;20.08;4.00;;;;;;;2.74;85.49;100389.06;4919486;29;20028;-73
2022/01/05 07:33:13;;;;;;;18.38;3.60;;;;;;;2.81;84.25;100396.44;4916897;29;20047;-73
2022/01/05 07:35:39;;;;;;;15.23;3.38;;;;;;;2.86;84.13;100396.28;4918550;29;20103;-75
2022/01/05 07:38:05;;;;;;;15.07;2.90;;;;;;;2.91;84.12;100404.59;4918580;29;20032;-74
2022/01/05 07:40:30;;;;;;;12.75;3.33;;;;;;;2.77;83.93;100371.13;4918797;29;20027;-76
2022/01/05 07:42:55;;;;;;;19.77;3.78;;;;;;;2.98;84.80;100403.47;4919657;29;20111;-76
2022/01/05 07:45:21;;;;;;;14.85;3.30;;;;;;;2.91;84.09;100391.81;4918919;29;20369;-80
2022/01/05 07:47:46;;;;;;;21.05;3.80;;;;;;;3.00;83.40;100399.13;4920334;29;20392;-85
2022/01/05 07:50:14;;;;;;;14.90;3.67;;;;;;;3.04;84.02;100410.88;4918680;29;20028;-89
2022/01/05 07:52:41;;;;;;;15.80;2.95;;;;;;;3.03;83.82;100419.41;4921246;29;20028;-88
2022/01/05 07:55:07;;;;;;;16.65;3.47;;;;;;;2.90;83.58;100400.38;4918997;29;20456;-73
2022/01/05 07:57:34;;;;;;;14.70;3.92;;;;;;;3.12;83.76;100426.72;4916458;29;20385;-72
2022/01/05 07:59:59;;;;;;;15.25;3.33;;;;;;;3.12;83.28;100434.38;4918303;29;20527;-72
2022/01/05 08:02:24;;;;;;;14.27;3.92;;;;;;;3.02;83.73;100420.31;4918298;29;20028;-72
2022/01/05 08:04:50;;;;;;;16.42;4.53;;;;;;;3.16;82.77;100433.38;4918342;29;20032;-73
2022/01/05 08:07:24;;;;;;;19.70;3.47;;;;;;;3.17;83.12;100436.75;4918146;29;20029;-76
2022/01/05 08:09:50;;;;;;;15.75;3.53;;;;;;;3.29;83.92;100455.84;4918147;29;20389;-74
2022/01/05 08:12:15;;;;;;;17.05;3.17;;;;;;;3.25;83.23;100439.00;4918130;29;20039;-74
2022/01/05 08:14:40;;;;;;;16.02;3.75;;;;;;;3.31;82.95;100448.97;4917863;29;20036;-72
2022/01/05 08:17:06;;;;;;;14.80;3.60;;;;;;;3.32;83.50;100443.78;4917942;29;20048;-73
2022/01/05 08:19:31;;;;;;;16.95;3.10;;;;;;;2.97;83.48;100378.84;4918305;29;20436;-80
2022/01/05 08:21:56;;;;;;;17.00;3.88;;;;;;;3.24;83.60;100427.13;4917893;29;20504;-74
2022/01/05 08:24:22;;;;;;;12.25;3.33;;;;;;;3.30;83.45;100429.44;4916788;29;20024;-73
2022/01/05 08:26:47;;;;;;;14.38;3.15;;;;;;;3.31;82.52;100433.66;4917909;29;20028;-76
2022/01/05 08:29:12;;;;;;;17.15;3.72;;;;;;;3.28;83.02;100436.34;4917457;29;20111;-77
2022/01/05 08:31:38;;;;;;;14.90;3.33;;;;;;;3.16;82.64;100441.03;4917707;29;20063;-74
2022/01/05 08:34:03;;;;;;;17.52;3.28;;;;;;;3.18;82.98;100443.50;4917632;29;20118;-75
2022/01/05 08:36:28;;;;;;;14.35;3.00;;;;;;;3.09;83.76;100437.03;4917522;29;20028;-74
2022/01/05 08:38:54;;;;;;;19.77;4.13;;;;;;;3.07;83.55;100441.38;4938931;23;20059;-75
2022/01/05 08:41:19;;;;;;;13.80;3.55;;;;;;;3.07;84.01;100443.94;4955842;29;20049;-86
2022/01/05 08:43:45;;;;;;;18.52;4.82;;;;;;;3.03;83.82;100454.28;4955983;29;20051;-86
2022/01/05 08:46:11;;;;;;;15.93;3.42;;;;;;;2.94;83.99;100435.06;4955761;29;20031;-89
2022/01/05 08:48:39;;;;;;;21.65;3.88;;;;;;;2.90;84.41;100430.97;4956080;29;20023;-90
2022/01/05 08:51:04;;;;;;;20.90;3.83;;;;;;;2.98;84.25;100433.25;4956107;29;20031;-84
2022/01/05 08:53:30;;;;;;;15.65;3.47;;;;;;;3.26;84.64;100444.06;4955672;29;20448;-90
2022/01/05 08:55:55;;;;;;;17.73;3.75;;;;;;;3.38;83.89;100438.47;4955625;29;20023;-75
2022/01/05 08:58:21;;;;;;;17.83;3.97;;;;;;;3.49;82.91;100434.66;4955458;29;20077;-75
2022/01/05 09:00:48;;;;;;;12.68;3.63;;;;;;;3.67;83.03;100444.97;4955446;29;20113;-84
2022/01/05 09:03:15;;;;;;;16.92;4.35;;;;;;;3.92;81.16;100470.31;4955672;29;20019;-90
2022/01/05 09:05:41;;;;;;;19.35;3.72;;;;;;;3.96;81.44;100481.25;4955309;29;20031;-90
2022/01/05 09:08:06;;;;;;;14.63;3.13;;;;;;;3.96;81.34;100474.41;4955313;29;20108;-87
2022/01/05 09:10:32;;;;;;;12.68;3.78;;;;;;;3.95;82.37;100472.75;4954675;29;20046;-89
2022/01/05 09:12:59;;;;;;;16.65;3.60;;;;;;;3.83;81.55;100454.53;4955208;29;20027;-83
2022/01/05 09:15:25;;;;;;;11.05;3.22;;;;;;;3.81;82.74;100467.38;4955016;29;20475;-75
2022/01/05 09:17:51;;;;;;;15.43;3.03;;;;;;;3.94;83.14;100476.22;4955134;29;20098;-72
2022/01/05 09:20:17;;;;;;;17.02;3.80;;;;;;;3.92;84.14;100489.91;4955419;29;20023;-71
2022/01/05 09:22:42;;;;;;;19.92;3.20;;;;;;;3.94;84.39;100500.94;4955069;29;20106;-73
2022/01/05 09:25:10;;;;;;;15.95;3.50;;;;;;;3.98;84.09;100487.94;4955035;29;20024;-90
2022/01/05 09:27:36;;;;;;;16.70;3.58;;;;;;;3.91;84.79;100483.16;4954960;29;20475;-70
2022/01/05 09:30:04;;;;;;;21.90;3.47;;;;;;;4.02;84.42;100501.41;4955094;29;20034;-78
2022/01/05 09:32:29;;;;;;;17.70;3.90;;;;;;;3.92;84.43;100495.84;4954755;29;20086;-76
2022/01/05 09:34:55;;;;;;;17.45;3.45;;;;;;;3.56;85.05;100433.53;4954573;28;20023;-74
2022/01/05 09:37:34;;;;;;;18.83;3.42;;;;;;;3.87;83.98;100485.00;4954864;28;20027;-75
2022/01/05 09:42:45;;;;;;;17.20;3.88;;;;;;;4.02;84.16;100509.91;4955122;29;20094;-87
2022/01/05 09:45:16;;;;;;;17.55;4.07;;;;;;;4.03;83.92;100518.41;4954832;29;20031;-90
2022/01/05 09:48:10;;;;;;;17.15;4.18;;;;;;;3.98;84.47;100517.78;4954949;29;20062;-84
2022/01/05 09:50:38;;;;;;;18.05;4.05;;;;;;;3.96;84.72;100514.47;4988322;23;20051;-76
2022/01/05 09:53:05;;;;;;;19.55;4.60;;;;;;;3.95;84.47;100523.03;4954342;29;20023;-76
2022/01/05 09:55:31;;;;;;;15.95;3.88;;;;;;;3.96;84.78;100527.22;4954478;29;20090;-81
2022/01/05 09:57:57;;;;;;;18.92;3.65;;;;;;;3.85;84.60;100511.50;4937529;29;20039;-75
2022/01/05 10:00:22;;;;;;;21.80;4.45;;;;;;;4.02;84.85;100522.69;4956104;28;20083;-91
2022/01/05 10:02:49;;;;;;;19.63;3.63;;;;;;;3.93;85.20;100500.09;4957818;29;20032;-90
2022/01/05 10:05:16;;;;;;;15.25;3.45;;;;;;;4.14;84.67;100535.88;4956889;29;20210;-80
2022/01/05 10:07:42;;;;;;;15.55;3.42;;;;;;;4.17;85.16;100531.47;4955618;28;20467;-72
2022/01/05 10:10:09;;;;;;;15.98;3.58;;;;;;;4.20;84.95;100527.94;4955093;29;20039;-84
2022/01/05 10:12:37;;;;;;;17.77;3.47;;;;;;;4.23;84.57;100536.34;4956764;29;20027;-79
2022/01/05 10:15:03;;;;;;;19.38;3.33;;;;;;;4.34;84.82;100548.66;4955133;29;20102;-92
2022/01/05 10:17:32;;;;;;;15.40;3.45;;;;;;;4.50;84.14;100557.34;4957817;29;20031;-78
2022/01/05 10:20:05;;;;;;;18.92;3.97;;;;;;;4.60;83.32;100542.44;4958083;29;20176;-95
2022/01/05 10:22:39;;;;;;;19.20;3.30;;;;;;;4.65;83.01;100558.44;4962948;28;20067;-93
2022/01/05 10:25:07;;;;;;;19.05;3.90;;;;;;;4.65;82.54;100549.94;4966932;29;20030;-88
2022/01/05 10:27:33;;;;;;;15.30;3.53;;;;;;;4.57;82.55;100545.13;4955483;29;20031;-92
2022/01/05 10:30:01;;;;;;;16.38;3.80;;;;;;;4.59;83.20;100564.63;4956628;29;20379;-92
2022/01/05 10:32:33;;;;;;;22.85;3.25;;;;;;;4.42;82.98;100536.38;4955023;29;20387;-77
2022/01/05 10:35:13;;;;;;;19.90;3.28;;;;;;;4.45;83.43;100525.19;4954663;29;20078;-91
2022/01/05 10:37:41;;;;;;;17.25;3.30;;;;;;;4.64;82.70;100566.16;4954762;29;20055;-78
2022/01/05 10:40:08;;;;;;;17.92;3.40;;;;;;;4.67;82.23;100571.16;4954720;28;20031;-86
2022/01/05 10:42:34;;;;;;;15.45;2.63;;;;;;;4.69;81.62;100570.19;4956001;29;20495;-90
2022/01/05 10:45:05;;;;;;;17.80;3.15;;;;;;;4.60;82.30;100542.44;4955616;29;20042;-78
2022/01/05 10:47:31;;;;;;;21.17;3.90;;;;;;;4.69;81.16;100539.47;4958712;28;20102;-80
2022/01/05 10:49:56;;;;;;;18.45;3.20;;;;;;;4.60;81.11;100530.47;4961823;29;20075;-88
2022/01/05 10:52:30;;;;;;;16.30;2.97;;;;;;;4.98;80.64;100570.66;5023799;23;20055;-76
2022/01/05 10:55:17;;;;;;;17.65;3.35;;;;;;;5.04;80.60;100575.50;4920866;29;20047;-77
2022/01/05 10:58:07;;;;;;;24.52;3.47;;;;;;;4.96;80.19;100565.59;4920003;29;20111;-82
2022/01/05 11:00:43;;;;;;;17.02;3.65;;;;;;;4.93;80.41;100583.66;4921936;29;20081;-88
2022/01/05 11:03:32;;;;;;;15.20;3.05;;;;;;;4.96;80.83;100603.16;4920200;29;20163;-90
2022/01/05 11:06:02;;;;;;;17.83;3.40;;;;;;;4.81;81.87;100568.81;4906652;29;20129;-91
2022/01/05 11:08:27;;;;;;;17.20;3.63;;;;;;;4.53;80.68;100530.81;4921625;29;20035;-79
2022/01/05 11:10:52;;;;;;;17.23;3.78;;;;;;;4.94;80.41;100571.69;4919464;29;20032;-93
2022/01/05 11:13:18;;;;;;;19.50;3.58;;;;;;;5.21;80.31;100603.75;4923940;29;20031;-86
2022/01/05 11:15:43;;;;;;;19.00;4.53;;;;;;;5.24;80.07;100611.28;4921585;29;20047;-87
2022/01/05 11:18:11;;;;;;;16.23;3.00;;;;;;;5.27;79.70;100603.47;4922190;29;20036;-88
2022/01/05 11:20:55;;;;;;;18.65;3.05;;;;;;;5.32;80.66;100611.78;4922849;29;20028;-90
2022/01/05 11:23:25;;;;;;;15.48;2.95;;;;;;;5.05;80.97;100556.69;4919867;29;20480;-89
2022/01/05 11:25:53;;;;;;;15.48;3.33;;;;;;;5.34;80.50;100604.03;4919200;29;20543;-83
2022/01/05 11:28:20;;;;;;;18.55;3.50;;;;;;;4.78;79.50;100520.34;4923140;29;20036;-90
2022/01/05 11:30:47;;;;;;;16.90;3.20;;;;;;;5.40;80.06;100619.09;4922249;29;20032;-87
2022/01/05 11:33:13;;;;;;;18.42;3.97;;;;;;;5.47;79.92;100620.50;4923963;29;20033;-93
2022/01/05 11:35:39;;;;;;;16.20;3.50;;;;;;;5.64;79.93;100610.31;4923335;29;20106;-82
2022/01/05 11:38:05;;;;;;;18.52;3.35;;;;;;;5.52;79.51;100580.16;4919612;29;20031;-78
2022/01/05 11:40:33;;;;;;;17.38;3.25;;;;;;;5.73;79.61;100630.41;4918697;29;20039;-80